Time;durP1;ratioP1;P1;durP2;ratioP2;P2;SDS_P1;SDS_P2;PMS_P1;PMS_P2;Temp;Humidity;BMP_temperature;BMP_pressure;BME280_temperature;BME280_humidity;BME280_pressure;Samples;Min_cycle;Max_cycle;Signal;HPM_P1;HPM_P2
2023/09/13 00:00:46;;;;;;;6.18;5.25;;;;;;;19.02;100.00;100395.88;7383837;19;20375;-79
2023/09/13 00:03:13;;;;;;;7.20;5.07;;;;;;;18.97;100.00;100386.88;7383113;19;20349;-80
2023/09/13 00:05:42;;;;;;;6.85;4.50;;;;;;;18.93;100.00;100375.78;7381615;19;20364;-79
2023/09/13 00:08:09;;;;;;;5.33;4.20;;;;;;;18.89;100.00;100374.63;7381425;19;20439;-79
2023/09/13 00:10:36;;;;;;;6.20;4.25;;;;;;;18.87;100.00;100366.81;7381289;19;20360;-79
2023/09/13 00:13:03;;;;;;;6.43;4.82;;;;;;;18.86;100.00;100361.66;7382930;19;20368;-79
2023/09/13 00:15:30;;;;;;;8.52;4.00;;;;;;;18.81;100.00;100366.94;7386129;19;20357;-79
2023/09/13 00:17:57;;;;;;;5.53;3.70;;;;;;;18.78;100.00;100362.00;7384106;19;20385;-79
2023/09/13 00:20:24;;;;;;;5.57;4.20;;;;;;;18.76;100.00;100354.16;7380669;19;21019;-79
2023/09/13 00:22:51;;;;;;;5.22;4.00;;;;;;;18.73;100.00;100358.16;7382901;19;20432;-79
2023/09/13 00:25:17;;;;;;;4.72;3.88;;;;;;;18.71;100.00;100354.88;7383575;19;20393;-79
2023/09/13 00:27:44;;;;;;;5.40;3.47;;;;;;;18.69;100.00;100364.25;7381099;19;20368;-79
2023/09/13 00:30:11;;;;;;;4.63;3.70;;;;;;;18.71;100.00;100367.50;7382600;19;20923;-79
2023/09/13 00:32:38;;;;;;;4.88;3.50;;;;;;;18.69;100.00;100365.06;7384173;19;20348;-79
2023/09/13 00:35:05;;;;;;;5.30;3.65;;;;;;;18.69;100.00;100375.00;7384065;19;20344;-79
2023/09/13 00:37:32;;;;;;;6.18;3.38;;;;;;;18.69;100.00;100383.84;7383792;19;20888;-79
2023/09/13 00:39:59;;;;;;;4.57;3.60;;;;;;;18.71;100.00;100389.81;7380763;19;20344;-79
2023/09/13 00:42:28;;;;;;;4.63;3.70;;;;;;;18.74;100.00;100392.03;7384065;19;20377;-79
2023/09/13 00:44:55;;;;;;;5.20;3.83;;;;;;;18.78;100.00;100396.94;7379356;19;20352;-79
2023/09/13 00:47:22;;;;;;;6.15;4.03;;;;;;;18.77;100.00;100404.19;7379856;19;20476;-79
2023/09/13 00:49:49;;;;;;;6.80;4.15;;;;;;;18.79;100.00;100417.44;7382372;19;20369;-79
2023/09/13 00:52:17;;;;;;;6.18;4.03;;;;;;;18.77;100.00;100425.69;7384534;19;20685;-79
2023/09/13 00:54:44;;;;;;;6.78;4.30;;;;;;;18.71;100.00;100427.44;7385058;19;20407;-82
2023/09/13 00:57:11;;;;;;;5.25;4.35;;;;;;;18.63;100.00;100424.28;7378646;19;20405;-78
2023/09/13 00:59:39;;;;;;;5.95;4.70;;;;;;;18.59;100.00;100426.63;7378952;19;20356;-77
2023/09/13 01:02:06;;;;;;;6.40;5.10;;;;;;;18.54;100.00;100439.94;7376257;19;20368;-76
2023/09/13 01:04:34;;;;;;;7.72;5.20;;;;;;;18.51;100.00;100435.06;7376773;19;20378;-77
2023/09/13 01:07:01;;;;;;;7.30;5.20;;;;;;;18.49;100.00;100431.78;7379097;19;20396;-77
2023/09/13 01:09:29;;;;;;;8.55;5.18;;;;;;;18.48;100.00;100440.88;7379700;19;20348;-76
2023/09/13 01:11:55;;;;;;;8.40;5.30;;;;;;;18.45;100.00;100436.78;7376700;19;20520;-75
2023/09/13 01:14:22;;;;;;;8.13;5.40;;;;;;;18.43;100.00;100430.03;7380516;19;20434;-75
2023/09/13 01:16:58;;;;;;;7.28;5.57;;;;;;;18.40;100.00;100419.72;7379729;19;20356;-75
2023/09/13 01:19:59;;;;;;;7.43;5.50;;;;;;;18.41;100.00;100413.31;7374546;19;20375;-74
2023/09/13 01:22:36;;;;;;;7.70;5.80;;;;;;;18.44;100.00;100394.03;7374755;19;20398;-74
2023/09/13 01:25:21;;;;;;;7.97;6.10;;;;;;;18.48;100.00;100389.84;7377902;19;20424;-75
2023/09/13 01:28:02;;;;;;;7.45;5.50;;;;;;;18.50;100.00;100379.69;7386256;19;20387;-75
2023/09/13 01:30:29;;;;;;;6.10;5.38;;;;;;;18.49;100.00;100378.06;7387973;19;20352;-75
2023/09/13 01:32:57;;;;;;;6.63;4.90;;;;;;;18.50;100.00;100371.63;7386355;19;20368;-74
2023/09/13 01:35:24;;;;;;;7.05;4.60;;;;;;;18.51;100.00;100374.09;7385712;19;20361;-74
2023/09/13 01:37:51;;;;;;;5.55;4.60;;;;;;;18.51;100.00;100362.53;7388018;19;20353;-74
2023/09/13 01:40:21;;;;;;;6.63;4.25;;;;;;;18.51;100.00;100357.97;7381307;19;20682;-74
2023/09/13 01:42:49;;;;;;;5.67;4.47;;;;;;;18.51;100.00;100351.78;7386036;19;20363;-74
2023/09/13 01:45:16;;;;;;;5.97;4.20;;;;;;;18.50;100.00;100352.81;7388632;19;20382;-74
2023/09/13 01:47:46;;;;;;;6.47;4.53;;;;;;;18.50;100.00;100361.69;7385246;19;20364;-74
2023/09/13 01:50:14;;;;;;;5.40;4.22;;;;;;;18.51;100.00;100359.84;7384839;19;20388;-74
2023/09/13 01:52:41;;;;;;;5.03;3.70;;;;;;;18.52;100.00;100364.16;7388244;19;20337;-74
2023/09/13 01:55:09;;;;;;;6.18;4.32;;;;;;;18.53;100.00;100353.19;7384760;19;20399;-74
2023/09/13 01:57:36;;;;;;;6.63;4.00;;;;;;;18.55;100.00;100350.22;7388238;19;20381;-75
2023/09/13 02:00:06;;;;;;;4.80;4.07;;;;;;;18.54;100.00;100352.09;7384575;19;20678;-75
2023/09/13 02:02:40;;;;;;;5.50;4.15;;;;;;;18.55;100.00;100355.59;7383574;19;20361;-75
2023/09/13 02:05:07;;;;;;;5.20;3.80;;;;;;;18.56;100.00;100354.56;7385587;19;20351;-76
2023/09/13 02:07:34;;;;;;;4.18;3.78;;;;;;;18.54;100.00;100351.31;7384000;19;20380;-75
2023/09/13 02:10:00;;;;;;;4.15;3.67;;;;;;;18.52;100.00;100353.41;7383142;19;20424;-75
2023/09/13 02:12:28;;;;;;;5.80;3.88;;;;;;;18.50;100.00;100352.81;7388934;19;20364;-75
2023/09/13 02:14:58;;;;;;;4.57;3.83;;;;;;;18.47;100.00;100356.00;7380632;19;21020;-75
2023/09/13 02:17:25;;;;;;;4.43;4.00;;;;;;;18.42;100.00;100353.19;7384365;19;20455;-76
2023/09/13 02:19:52;;;;;;;6.00;4.30;;;;;;;18.35;100.00;100342.56;7385098;19;20368;-75
2023/09/13 02:22:18;;;;;;;7.15;4.68;;;;;;;18.30;100.00;100335.22;7387619;19;20352;-75
2023/09/13 02:24:45;;;;;;;7.32;5.07;;;;;;;18.28;100.00;100333.81;7384089;19;20393;-75
2023/09/13 02:27:12;;;;;;;6.00;5.13;;;;;;;18.26;100.00;100339.41;7384003;19;20359;-75
2023/09/13 02:29:39;;;;;;;8.00;4.70;;;;;;;18.26;100.00;100334.06;7383862;19;20363;-75
2023/09/13 02:32:06;;;;;;;6.13;4.85;;;;;;;18.25;100.00;100343.13;7385774;19;20703;-75
2023/09/13 02:34:33;;;;;;;6.63;5.17;;;;;;;18.24;100.00;100354.94;7381783;19;20344;-75
2023/09/13 02:37:00;;;;;;;6.33;5.27;;;;;;;18.22;100.00;100369.66;7379359;19;20376;-75
2023/09/13 02:39:31;;;;;;;7.07;5.30;;;;;;;18.17;100.00;100375.72;7385497;19;20344;-75
2023/09/13 02:41:58;;;;;;;6.30;5.43;;;;;;;18.12;100.00;100384.47;7384758;19;20377;-76
2023/09/13 02:44:25;;;;;;;6.55;5.55;;;;;;;18.06;100.00;100387.25;7380397;19;20462;-76
2023/09/13 02:46:51;;;;;;;7.43;5.70;;;;;;;18.03;100.00;100390.41;7382182;19;20353;-76
2023/09/13 02:49:20;;;;;;;6.33;5.33;;;;;;;18.01;100.00;100389.84;7385051;19;20851;-77
2023/09/13 02:51:48;;;;;;;7.05;5.53;;;;;;;18.01;100.00;100395.19;7382175;19;20372;-76
2023/09/13 02:54:14;;;;;;;9.25;5.45;;;;;;;17.98;100.00;100392.97;7380816;19;20413;-76
2023/09/13 02:56:41;;;;;;;8.68;5.35;;;;;;;17.96;100.00;100392.38;7384736;19;20369;-76
2023/09/13 02:59:08;;;;;;;6.40;5.00;;;;;;;17.95;100.00;100396.13;7387213;19;20360;-76
2023/09/13 03:01:35;;;;;;;8.43;5.63;;;;;;;17.95;100.00;100398.81;7383281;19;20712;-76
2023/09/13 03:04:03;;;;;;;7.87;5.47;;;;;;;17.97;100.00;100388.66;7379749;19;20361;-76
2023/09/13 03:06:30;;;;;;;7.25;5.60;;;;;;;17.98;100.00;100380.38;7383672;19;20923;-76
2023/09/13 03:08:56;;;;;;;7.20;5.90;;;;;;;18.00;100.00;100382.81;7380171;19;20856;-76
2023/09/13 03:11:24;;;;;;;8.18;5.93;;;;;;;18.01;100.00;100387.16;7381262;19;20383;-76
2023/09/13 03:13:51;;;;;;;10.50;6.43;;;;;;;17.98;100.00;100385.75;7380905;19;20348;-76
2023/09/13 03:16:20;;;;;;;9.80;6.78;;;;;;;17.96;100.00;100381.63;7384046;19;20991;-76
2023/09/13 03:18:49;;;;;;;10.15;7.35;;;;;;;17.92;100.00;100376.75;7382928;19;20373;-76
2023/09/13 03:21:20;;;;;;;11.75;7.53;;;;;;;17.92;100.00;100381.31;7382745;19;20356;-76
2023/09/13 03:23:49;;;;;;;11.65;7.53;;;;;;;17.93;100.00;100378.38;7379417;19;20360;-76
2023/09/13 03:26:24;;;;;;;12.27;7.90;;;;;;;17.92;100.00;100392.84;7381319;19;20467;-76
2023/09/13 03:28:56;;;;;;;10.60;8.20;;;;;;;17.92;100.00;100390.16;7381713;19;20353;-76
2023/09/13 03:31:26;;;;;;;9.80;8.18;;;;;;;17.91;100.00;100393.91;7380109;19;20380;-76
2023/09/13 03:33:56;;;;;;;9.15;8.18;;;;;;;17.90;100.00;100394.13;7382428;19;20369;-76
2023/09/13 03:36:27;;;;;;;9.60;7.85;;;;;;;17.87;100.00;100395.41;7379628;19;20407;-76
2023/09/13 03:38:56;;;;;;;9.43;8.40;;;;;;;17.84;100.00;100395.88;7381433;19;20427;-76
2023/09/13 03:41:26;;;;;;;9.77;8.38;;;;;;;17.79;100.00;100390.34;7382725;19;20360;-76
2023/09/13 03:43:53;;;;;;;10.33;8.77;;;;;;;17.77;100.00;100386.28;7380873;19;20393;-76
2023/09/13 03:46:20;;;;;;;11.88;9.32;;;;;;;17.78;100.00;100383.34;7377755;19;20689;-76
2023/09/13 03:48:52;;;;;;;13.02;9.23;;;;;;;17.76;100.00;100382.75;7374223;19;20933;-76
2023/09/13 03:51:19;;;;;;;10.60;8.88;;;;;;;17.76;100.00;100382.75;7382977;19;20419;-76
2023/09/13 03:53:47;;;;;;;10.10;9.10;;;;;;;17.80;100.00;100375.88;7382305;19;20353;-76
2023/09/13 03:56:14;;;;;;;10.75;8.85;;;;;;;17.81;100.00;100380.22;7382216;19;20419;-76
2023/09/13 03:58:41;;;;;;;11.48;9.15;;;;;;;17.84;100.00;100377.09;7380748;19;20841;-76
2023/09/13 04:01:08;;;;;;;10.30;9.20;;;;;;;17.86;100.00;100385.72;7379697;19;20440;-76
2023/09/13 04:03:36;;;;;;;11.15;9.10;;;;;;;17.87;100.00;100390.06;7380062;19;20382;-76
2023/09/13 04:06:03;;;;;;;11.88;9.43;;;;;;;17.86;100.00;100399.13;7374970;19;20378;-76
2023/09/13 04:08:30;;;;;;;11.23;9.40;;;;;;;17.82;100.00;100403.31;7380227;19;20385;-76
2023/09/13 04:10:57;;;;;;;12.15;9.02;;;;;;;17.80;100.00;100402.72;7381640;19;20372;-76
2023/09/13 04:13:24;;;;;;;11.95;10.15;;;;;;;17.78;100.00;100402.13;7382474;19;20424;-76
2023/09/13 04:15:51;;;;;;;11.98;10.30;;;;;;;17.78;100.00;100407.47;7381051;19;20885;-76
2023/09/13 04:18:18;;;;;;;12.05;10.70;;;;;;;17.79;100.00;100411.81;7378522;19;20368;-76
2023/09/13 04:20:48;;;;;;;14.80;11.75;;;;;;;17.82;100.00;100407.84;7379312;19;20384;-76
2023/09/13 04:23:16;;;;;;;15.38;12.68;;;;;;;17.84;100.00;100406.59;7377027;19;21030;-74
2023/09/13 04:25:43;;;;;;;18.27;13.00;;;;;;;17.89;100.00;100405.91;7378139;19;20835;-74
2023/09/13 04:28:11;;;;;;;16.85;13.13;;;;;;;17.92;100.00;100408.94;7380878;19;20360;-74
2023/09/13 04:30:39;;;;;;;15.90;13.25;;;;;;;17.93;100.00;100405.22;7379392;19;20378;-77
2023/09/13 04:33:07;;;;;;;15.35;12.73;;;;;;;17.93;100.00;100410.56;7379175;19;20356;-76
2023/09/13 04:35:34;;;;;;;15.98;13.02;;;;;;;17.98;100.00;100406.38;7380039;19;20368;-76
2023/09/13 04:38:02;;;;;;;16.98;14.00;;;;;;;18.01;100.00;100404.06;7379703;19;20901;-76
2023/09/13 04:40:30;;;;;;;17.57;14.13;;;;;;;18.05;100.00;100412.47;7380085;19;20379;-76
2023/09/13 04:43:06;;;;;;;15.95;13.73;;;;;;;18.09;100.00;100408.28;7376771;19;20844;-76
2023/09/13 04:45:35;;;;;;;18.02;13.52;;;;;;;18.12;100.00;100408.63;7373526;19;20367;-76
2023/09/13 04:48:03;;;;;;;16.13;13.35;;;;;;;18.16;100.00;100414.34;7375189;19;20892;-76
2023/09/13 04:50:29;;;;;;;19.02;14.25;;;;;;;18.18;100.00;100414.94;7381156;19;20368;-76
2023/09/13 04:52:56;;;;;;;16.77;13.68;;;;;;;18.21;100.00;100410.97;7383165;19;20365;-76
2023/09/13 04:55:26;;;;;;;19.48;14.55;;;;;;;18.23;100.00;100404.31;7379648;19;20872;-76
2023/09/13 04:57:53;;;;;;;18.23;14.40;;;;;;;18.26;100.00;100408.41;7376894;19;20727;-76
2023/09/13 05:00:21;;;;;;;16.25;13.27;;;;;;;18.27;100.00;100408.16;7380047;19;20372;-76
2023/09/13 05:02:47;;;;;;;19.58;14.32;;;;;;;18.27;100.00;100404.66;7384643;19;20710;-76
2023/09/13 05:05:15;;;;;;;18.15;14.10;;;;;;;18.29;100.00;100402.56;7390523;19;20360;-76
2023/09/13 05:07:42;;;;;;;19.27;14.10;;;;;;;18.29;100.00;100398.00;7390170;19;20374;-76
2023/09/13 05:10:09;;;;;;;18.23;15.32;;;;;;;18.29;100.00;100397.19;7390373;19;20370;-76
2023/09/13 05:12:35;;;;;;;18.58;14.60;;;;;;;18.32;100.00;100394.06;7387182;19;21202;-76
2023/09/13 05:15:02;;;;;;;16.58;13.75;;;;;;;18.30;100.00;100393.47;7390638;19;20446;-78
2023/09/13 05:17:29;;;;;;;17.73;14.38;;;;;;;18.30;100.00;100396.16;7390068;19;20428;-79
2023/09/13 05:19:56;;;;;;;18.08;14.48;;;;;;;18.33;100.00;100398.38;7390699;19;20344;-78
2023/09/13 05:22:23;;;;;;;18.10;14.15;;;;;;;18.37;100.00;100398.72;7387128;19;20364;-78
2023/09/13 05:24:50;;;;;;;17.23;14.35;;;;;;;18.38;100.00;100397.66;7392511;19;20370;-78
2023/09/13 05:27:17;;;;;;;16.95;12.85;;;;;;;18.40;100.00;100398.25;7390434;19;20364;-78
2023/09/13 05:29:44;;;;;;;16.80;13.65;;;;;;;18.44;100.00;100405.59;7383862;19;20880;-78
2023/09/13 05:32:10;;;;;;;14.02;12.45;;;;;;;18.46;100.00;100400.81;7386917;19;20359;-78
2023/09/13 05:34:37;;;;;;;15.45;12.80;;;;;;;18.51;100.00;100410.88;7390841;19;20345;-78
2023/09/13 05:37:04;;;;;;;16.48;12.75;;;;;;;18.53;100.00;100414.97;7389580;19;20404;-78
2023/09/13 05:39:31;;;;;;;16.57;13.30;;;;;;;18.57;100.00;100419.84;7384615;19;20380;-78
2023/09/13 05:42:00;;;;;;;16.33;12.77;;;;;;;18.61;100.00;100421.81;7387694;19;20720;-78
2023/09/13 05:44:27;;;;;;;16.83;13.40;;;;;;;18.65;100.00;100423.00;7391321;19;20446;-78
2023/09/13 05:46:53;;;;;;;16.93;13.90;;;;;;;18.71;100.00;100435.50;7388113;19;20437;-78
2023/09/13 05:49:20;;;;;;;16.02;13.45;;;;;;;18.77;100.00;100441.00;7388037;19;20393;-78
2023/09/13 05:51:47;;;;;;;15.80;13.02;;;;;;;18.80;100.00;100441.34;7388941;19;20375;-79
2023/09/13 05:54:14;;;;;;;16.15;13.20;;;;;;;18.85;100.00;100437.94;7387328;19;20352;-79
2023/09/13 05:56:41;;;;;;;15.23;12.80;;;;;;;18.91;100.00;100442.38;7388414;19;20385;-79
2023/09/13 05:59:08;;;;;;;14.97;13.23;;;;;;;18.93;100.00;100445.66;7378153;19;20760;-78
2023/09/13 06:01:39;;;;;;;16.65;12.98;;;;;;;18.94;100.00;100448.13;7387112;19;20368;-78
2023/09/13 06:04:07;;;;;;;14.68;12.05;;;;;;;19.02;100.00;100448.78;7391247;19;20349;-78
2023/09/13 06:06:35;;;;;;;15.48;12.82;;;;;;;19.09;100.00;100454.88;7393499;19;20373;-79
2023/09/13 06:09:03;;;;;;;13.48;11.25;;;;;;;19.12;100.00;100449.00;7395332;19;20377;-79
2023/09/13 06:11:31;;;;;;;12.60;11.20;;;;;;;19.14;100.00;100450.41;7392617;19;20382;-79
2023/09/13 06:13:58;;;;;;;13.57;11.03;;;;;;;19.20;100.00;100461.28;7391977;19;20873;-79
2023/09/13 06:16:25;;;;;;;14.77;11.45;;;;;;;19.25;100.00;100466.75;7395477;19;20951;-79
2023/09/13 06:18:52;;;;;;;12.65;10.75;;;;;;;19.30;100.00;100477.63;7390914;19;20359;-79
2023/09/13 06:21:19;;;;;;;11.57;9.77;;;;;;;19.32;100.00;100484.41;7395428;19;20357;-79
2023/09/13 06:23:47;;;;;;;8.77;7.45;;;;;;;19.30;100.00;100485.69;7396260;19;20348;-80
2023/09/13 06:26:14;;;;;;;8.07;7.05;;;;;;;19.23;100.00;100477.75;7392803;19;20382;-80
2023/09/13 06:28:41;;;;;;;8.20;7.27;;;;;;;19.25;100.00;100485.56;7393903;19;20356;-80
2023/09/13 06:31:08;;;;;;;6.70;5.53;;;;;;;19.19;100.00;100481.16;7395556;19;20365;-80
2023/09/13 06:33:48;;;;;;;6.20;5.50;;;;;;;19.19;100.00;100494.59;7397779;19;20374;-80
2023/09/13 06:36:15;;;;;;;6.32;5.30;;;;;;;19.13;100.00;100489.13;7396135;19;20677;-81
2023/09/13 06:38:42;;;;;;;6.63;5.80;;;;;;;19.11;100.00;100485.84;7394104;19;20373;-80
2023/09/13 06:41:10;;;;;;;6.72;5.80;;;;;;;19.14;100.00;100488.03;7396355;19;20374;-81
2023/09/13 06:43:37;;;;;;;7.78;6.32;;;;;;;19.19;100.00;100494.59;7400140;19;20386;-80
2023/09/13 06:46:24;;;;;;;7.40;6.60;;;;;;;19.24;100.00;100489.34;7397629;19;20845;-81
2023/09/13 06:48:51;;;;;;;7.70;6.90;;;;;;;19.31;100.00;100492.69;7398001;19;20372;-81
2023/09/13 06:51:19;;;;;;;10.27;7.57;;;;;;;19.41;100.00;100500.97;7397107;19;20412;-81
2023/09/13 06:53:50;;;;;;;12.52;8.70;;;;;;;19.59;100.00;100501.84;7393011;19;20837;-81
2023/09/13 06:56:20;;;;;;;10.68;8.55;;;;;;;19.78;100.00;100500.63;7394722;19;20436;-81
2023/09/13 06:58:55;;;;;;;15.25;9.10;;;;;;;19.92;100.00;100506.56;7394177;19;20370;-81
2023/09/13 07:01:25;;;;;;;14.43;8.43;;;;;;;20.08;100.00;100511.16;7394113;19;20872;-81
2023/09/13 07:04:00;;;;;;;14.52;8.10;;;;;;;20.19;100.00;100504.06;7394758;19;20967;-82
2023/09/13 07:06:33;;;;;;;14.45;8.77;;;;;;;20.29;100.00;100503.41;7397067;19;20349;-82
2023/09/13 07:09:04;;;;;;;15.02;9.07;;;;;;;20.32;100.00;100519.09;7390957;19;20881;-82
2023/09/13 07:11:30;;;;;;;11.30;7.73;;;;;;;20.26;100.00;100518.19;7388896;19;20418;-81
2023/09/13 07:13:59;;;;;;;18.08;9.10;;;;;;;20.30;100.00;100510.44;7393666;19;20720;-81
2023/09/13 07:16:26;;;;;;;12.18;8.30;;;;;;;20.22;100.00;100517.03;7392148;19;20426;-81
2023/09/13 07:18:55;;;;;;;13.45;8.48;;;;;;;20.23;100.00;100524.09;7395733;19;20356;-81
2023/09/13 07:21:22;;;;;;;12.07;8.77;;;;;;;20.26;100.00;100525.47;7391055;19;20912;-82
2023/09/13 07:23:49;;;;;;;10.47;8.17;;;;;;;20.24;100.00;100531.09;7397848;19;20368;-81
2023/09/13 07:26:16;;;;;;;9.80;8.40;;;;;;;20.20;100.00;100527.25;7395425;19;20398;-81
2023/09/13 07:28:43;;;;;;;8.73;7.65;;;;;;;20.10;100.00;100535.13;7392127;19;20389;-81
2023/09/13 07:31:10;;;;;;;11.63;9.35;;;;;;;20.08;100.00;100531.88;7389225;19;20380;-81
2023/09/13 07:33:37;;;;;;;13.00;9.73;;;;;;;19.98;100.00;100543.28;7393637;19;20364;-82
2023/09/13 07:36:04;;;;;;;12.70;9.65;;;;;;;19.85;100.00;100538.16;7393845;19;20357;-81
2023/09/13 07:38:31;;;;;;;18.08;9.82;;;;;;;19.82;100.00;100541.34;7397679;19;20360;-81
2023/09/13 07:40:58;;;;;;;15.13;10.35;;;;;;;19.86;100.00;100537.13;7395948;19;20382;-81
2023/09/13 07:43:25;;;;;;;13.70;9.48;;;;;;;19.96;100.00;100546.22;7393708;19;20357;-81
2023/09/13 07:45:52;;;;;;;13.40;9.80;;;;;;;20.06;100.00;100544.75;7398658;19;20805;-80
2023/09/13 07:48:19;;;;;;;13.40;10.18;;;;;;;20.20;100.00;100539.91;7391237;19;20341;-81
2023/09/13 07:50:46;;;;;;;11.50;8.57;;;;;;;20.32;100.00;100538.78;7391845;19;20391;-81
2023/09/13 07:53:13;;;;;;;9.75;8.75;;;;;;;20.46;100.00;100549.22;7388903;19;20358;-81
2023/09/13 07:55:40;;;;;;;9.25;8.35;;;;;;;20.52;100.00;100554.44;7394625;19;20356;-81
2023/09/13 07:58:08;;;;;;;8.98;8.07;;;;;;;20.62;99.98;100548.44;7394184;19;20356;-81
2023/09/13 08:00:35;;;;;;;8.52;7.63;;;;;;;20.73;98.40;100566.41;7395338;19;20345;-81
2023/09/13 08:03:03;;;;;;;8.40;7.07;;;;;;;20.87;98.46;100561.53;7391933;19;20401;-81
2023/09/13 08:05:31;;;;;;;7.60;5.80;;;;;;;20.96;97.03;100568.13;7388427;19;20371;-80
2023/09/13 08:07:59;;;;;;;5.57;5.00;;;;;;;21.06;95.16;100564.75;7395725;19;20372;-80
2023/09/13 08:10:28;;;;;;;5.40;4.83;;;;;;;21.00;94.71;100579.22;7387791;19;20361;-80
2023/09/13 08:12:55;;;;;;;5.80;5.10;;;;;;;20.93;95.50;100581.25;7390276;19;20978;-80
2023/09/13 08:15:22;;;;;;;6.50;5.10;;;;;;;20.91;94.65;100578.00;7394097;19;20368;-80
2023/09/13 08:18:08;;;;;;;5.00;4.43;;;;;;;20.86;93.60;100586.03;7394338;19;20356;-80
2023/09/13 08:20:35;;;;;;;5.47;4.35;;;;;;;20.94;94.77;100580.22;7390279;19;20369;-80
2023/09/13 08:23:02;;;;;;;6.72;5.10;;;;;;;20.97;93.36;100593.19;7390588;19;20416;-80
2023/09/13 08:25:29;;;;;;;5.25;4.47;;;;;;;20.92;91.83;100602.03;7391183;19;20373;-80
2023/09/13 08:27:56;;;;;;;6.07;5.22;;;;;;;20.96;93.00;100602.38;7391249;19;20363;-79
2023/09/13 08:30:23;;;;;;;5.30;4.80;;;;;;;20.94;91.95;100607.19;7386214;19;20370;-79
2023/09/13 08:32:50;;;;;;;5.32;4.82;;;;;;;20.95;91.25;100606.94;7388052;19;20368;-79
2023/09/13 08:35:19;;;;;;;6.05;4.70;;;;;;;21.00;91.63;100595.41;7388875;19;20769;-79
2023/09/13 08:37:47;;;;;;;4.60;4.20;;;;;;;21.07;91.64;100614.13;7390654;19;20372;-79
2023/09/13 08:40:14;;;;;;;5.80;4.32;;;;;;;21.05;90.74;100608.97;7390983;19;20355;-79
2023/09/13 08:42:42;;;;;;;5.13;4.63;;;;;;;21.16;91.80;100613.44;7386422;19;20427;-79
2023/09/13 08:45:10;;;;;;;4.73;3.77;;;;;;;21.36;91.67;100618.34;7386787;19;20385;-79
2023/09/13 08:47:41;;;;;;;4.10;3.70;;;;;;;21.57;90.26;100618.66;7390347;19;20365;-79
2023/09/13 08:50:29;;;;;;;4.78;3.53;;;;;;;21.79;89.71;100626.75;7387625;19;20352;-79
2023/09/13 08:53:02;;;;;;;3.45;2.92;;;;;;;22.04;89.01;100633.50;7389669;19;20375;-79
2023/09/13 08:55:31;;;;;;;4.10;3.42;;;;;;;22.20;87.20;100627.22;7386839;19;21409;-79
2023/09/13 08:58:00;;;;;;;3.80;2.75;;;;;;;22.38;86.26;100629.59;7389708;19;20353;-79
2023/09/13 09:00:33;;;;;;;4.55;2.90;;;;;;;22.52;85.18;100626.47;7389328;19;20361;-80
2023/09/13 09:03:03;;;;;;;3.47;2.57;;;;;;;22.49;84.58;100621.59;7389839;19;20368;-80
2023/09/13 09:05:32;;;;;;;3.78;2.70;;;;;;;22.47;84.72;100631.84;7389173;19;20356;-80
2023/09/13 09:08:02;;;;;;;3.50;2.50;;;;;;;22.43;83.66;100636.13;7394679;19;20411;-79
2023/09/13 09:10:31;;;;;;;3.70;2.83;;;;;;;22.50;85.24;100631.31;7383649;19;20359;-80
2023/09/13 09:12:59;;;;;;;3.75;2.95;;;;;;;22.55;84.19;100628.69;7390551;19;20365;-80
2023/09/13 09:15:27;;;;;;;3.53;2.72;;;;;;;22.64;84.15;100624.44;7384834;19;20668;-79
2023/09/13 09:17:56;;;;;;;3.50;3.00;;;;;;;22.77;84.28;100626.69;7389746;19;20716;-79
2023/09/13 09:20:28;;;;;;;3.90;2.80;;;;;;;22.84;83.52;100625.66;7387689;19;20365;-80
2023/09/13 09:23:02;;;;;;;3.75;2.60;;;;;;;22.89;81.79;100631.94;7391268;19;20356;-79
2023/09/13 09:25:30;;;;;;;3.60;3.03;;;;;;;22.87;80.93;100630.59;7384914;19;20345;-80
2023/09/13 09:27:58;;;;;;;4.15;3.00;;;;;;;22.86;81.44;100631.63;7389005;19;20356;-79
2023/09/13 09:30:29;;;;;;;4.32;3.10;;;;;;;22.76;80.72;100627.78;7387422;19;20404;-80
2023/09/13 09:33:03;;;;;;;4.32;3.22;;;;;;;22.69;82.26;100629.06;7388445;19;20364;-80
2023/09/13 09:35:31;;;;;;;3.70;3.20;;;;;;;22.55;83.78;100636.78;7388714;19;20359;-79
2023/09/13 09:37:59;;;;;;;3.75;3.00;;;;;;;22.35;84.41;100638.19;7388614;19;20358;-80
2023/09/13 09:40:26;;;;;;;4.03;3.10;;;;;;;22.09;86.10;100639.78;7389120;19;20381;-79
2023/09/13 09:42:57;;;;;;;4.18;3.42;;;;;;;21.93;87.44;100635.28;7385196;19;20379;-79
2023/09/13 09:45:24;;;;;;;4.20;3.40;;;;;;;21.66;89.21;100640.63;7388291;19;20352;-80
2023/09/13 09:47:51;;;;;;;4.78;4.30;;;;;;;21.52;90.63;100629.34;7391741;19;20365;-80
2023/09/13 09:50:18;;;;;;;5.00;4.40;;;;;;;21.37;92.36;100641.53;7390409;19;20498;-80
2023/09/13 09:52:49;;;;;;;5.50;4.90;;;;;;;21.21;93.59;100634.31;7394707;19;20433;-80
2023/09/13 09:55:21;;;;;;;6.75;4.47;;;;;;;21.06;95.23;100651.06;7395433;19;20372;-79
2023/09/13 09:57:50;;;;;;;4.18;2.75;;;;;;;20.89;95.08;100655.63;7395427;19;20696;-83
2023/09/13 10:00:18;;;;;;;3.60;2.30;;;;;;;20.73;96.01;100663.47;7399086;19;20794;-82
2023/09/13 10:02:45;;;;;;;4.63;3.20;;;;;;;20.38;98.54;100666.31;7398165;19;20389;-79
2023/09/13 10:05:16;;;;;;;5.83;3.30;;;;;;;20.13;100.00;100677.41;7398618;19;20392;-79
2023/09/13 10:07:57;;;;;;;5.07;3.10;;;;;;;19.93;100.00;100664.31;7389413;19;20348;-80
2023/09/13 10:10:29;;;;;;;5.57;3.88;;;;;;;19.80;100.00;100668.09;7390086;19;20353;-78
2023/09/13 10:12:56;;;;;;;4.18;3.10;;;;;;;19.79;100.00;100668.34;7394104;19;20379;-78
2023/09/13 10:15:24;;;;;;;4.63;2.75;;;;;;;19.73;100.00;100679.00;7392716;19;20436;-79
2023/09/13 10:17:53;;;;;;;3.50;3.03;;;;;;;19.64;100.00;100679.59;7387451;19;20356;-78
2023/09/13 10:20:21;;;;;;;3.65;3.10;;;;;;;19.60;100.00;100681.09;7391077;19;20364;-77
2023/09/13 10:22:49;;;;;;;4.00;2.60;;;;;;;19.52;100.00;100685.75;7387777;19;20355;-77
2023/09/13 10:25:18;;;;;;;4.00;2.47;;;;;;;19.50;100.00;100687.88;7390489;19;20394;-77
2023/09/13 10:27:49;;;;;;;3.50;2.03;;;;;;;19.51;100.00;100686.03;7392717;19;20368;-76
2023/09/13 10:30:24;;;;;;;2.53;2.10;;;;;;;19.51;100.00;100697.59;7393445;19;20741;-76
2023/09/13 10:32:57;;;;;;;1.90;1.50;;;;;;;19.50;100.00;100704.00;7393648;19;20364;-76
2023/09/13 10:35:28;;;;;;;2.03;1.30;;;;;;;19.45;100.00;100709.28;7390072;19;20693;-76
2023/09/13 10:38:07;;;;;;;2.22;1.30;;;;;;;19.39;100.00;100718.28;7389363;19;20434;-76
2023/09/13 10:40:39;;;;;;;2.10;1.77;;;;;;;19.37;100.00;100722.25;7388958;19;20368;-76
2023/09/13 10:43:08;;;;;;;2.80;2.00;;;;;;;19.35;100.00;100725.19;7387865;19;20344;-76
2023/09/13 10:45:36;;;;;;;3.00;2.38;;;;;;;19.26;100.00;100730.09;7385996;19;20368;-77
2023/09/13 10:48:04;;;;;;;3.65;3.30;;;;;;;19.25;100.00;100723.06;7392646;19;20375;-77
2023/09/13 10:50:31;;;;;;;4.10;3.70;;;;;;;19.25;100.00;100733.00;7391005;19;20378;-77
2023/09/13 10:52:59;;;;;;;5.00;4.50;;;;;;;19.20;100.00;100730.19;7390576;19;20365;-77
2023/09/13 10:55:27;;;;;;;5.83;4.80;;;;;;;19.13;100.00;100739.19;7389622;19;20360;-78
2023/09/13 10:57:55;;;;;;;5.40;4.90;;;;;;;18.87;100.00;100734.19;7390461;19;21057;-79
2023/09/13 11:00:26;;;;;;;5.75;4.80;;;;;;;18.83;100.00;100741.06;7396755;19;20738;-79
2023/09/13 11:02:53;;;;;;;5.97;5.38;;;;;;;18.81;100.00;100748.56;7394652;19;20876;-79
2023/09/13 11:05:20;;;;;;;8.02;5.55;;;;;;;18.80;100.00;100753.09;7396107;19;20376;-80
2023/09/13 11:07:47;;;;;;;6.05;4.68;;;;;;;18.79;100.00;100746.09;7398516;19;20880;-80
2023/09/13 11:10:16;;;;;;;5.17;4.40;;;;;;;18.80;100.00;100755.78;7394169;19;20360;-79
2023/09/13 11:12:50;;;;;;;5.47;4.97;;;;;;;18.86;100.00;100751.38;7392958;19;20371;-80
2023/09/13 11:15:25;;;;;;;7.77;5.00;;;;;;;18.93;100.00;100762.84;7388880;19;20835;-79
2023/09/13 11:17:54;;;;;;;5.13;4.63;;;;;;;18.96;100.00;100759.72;7394651;19;20349;-79
2023/09/13 11:20:38;;;;;;;5.13;4.45;;;;;;;19.10;100.00;100758.44;7393542;19;20394;-80